1887 Hurricane NOT_NAMED (1887201N12302)


IBTrACS version v04r00. Visit IBTrACS website for data access.
Please direct all questions to the IBTrACS Q and A forum

Storm track - Intensity - Wind Radii - Intensity Data - Source Data - All data

Summary Information

Storm ID 1887201N12302
Start Jul 20 00Z
Landfall Jul 25 15Z, Jul 27 18Z
Max Intensity 100 kt (Jul 27 18Z)
End Jul 30 00Z
ATCF IDs ,AL041887
Track status Best track data.

Storm track plot

Map of storm track

Intensity plots

Map of storm track

Radial wind information

No radial wind information for this storm


Position and Intensity Table

BASIN ISO_TIME_________ NATURE LAT LON WMO WIND USA WIND MLC WIND
degrees north degrees east kts kts kts
NA 1887-07-20 00:00:00 TS 12.00 -57.60 60 60
NA 03:00:00 TS 12.04 -58.37 60
NA 06:00:00 TS 12.19 -58.91 60 60 35
NA 09:00:00 TS 12.31 -59.68 60 37
NA 12:00:00 TS 12.46 -60.37 60 60 40
NA 15:00:00 TS 12.62 -60.98 60 42
NA 18:00:00 TS 12.73 -61.67 60 60 45
NA 21:00:00 TS 12.83 -62.32 60 45
NA 1887-07-21 00:00:00 TS 12.93 -62.97 60 60 45
NA 03:00:00 TS 13.04 -63.64 65 45
NA 06:00:00 TS 13.17 -64.33 70 70 45
NA 09:00:00 TS 13.30 -65.05 72 45
NA 12:00:00 TS 13.43 -65.77 75 75 45
NA 15:00:00 TS 13.55 -66.46 75 45
NA 18:00:00 TS 13.67 -67.13 75 75 45
NA 21:00:00 TS 13.79 -67.82 77 45
NA 1887-07-22 00:00:00 TS 13.93 -68.50 80 80 45
NA 03:00:00 TS 14.09 -69.19 80 45
NA 06:00:00 TS 14.23 -69.87 80 80 45
NA 09:00:00 TS 14.34 -70.52 82 45
NA 12:00:00 TS 14.43 -71.17 85 85 45
NA 15:00:00 TS 14.55 -71.82 85 45
NA 18:00:00 TS 14.67 -72.47 85 85 45
NA 21:00:00 TS 14.77 -73.12 85 47
NA 1887-07-23 00:00:00 TS 14.87 -73.77 85 85 50
NA 03:00:00 TS 14.94 -74.41 85 50
NA 06:00:00 TS 15.03 -75.07 85 85 50
NA 09:00:00 TS 15.17 -75.76 85 52
NA 12:00:00 TS 15.30 -76.43 85 85 55
NA 15:00:00 TS 15.38 -76.98 85 57
NA 18:00:00 TS 15.47 -77.53 85 85 60
NA 21:00:00 TS 15.60 -78.21 85 60
NA 1887-07-24 00:00:00 TS 15.77 -78.93 85 85 60
NA 03:00:00 TS 15.92 -79.66 85 60
NA 06:00:00 TS 16.10 -80.40 85 85 60
NA 09:00:00 TS 16.32 -81.08 85 62
NA 12:00:00 TS 16.60 -81.83 85 85 65
NA 15:00:00 TS 16.91 -82.83 85 70
NA 18:00:00 TS 17.27 -83.83 85 85 75
NA 21:00:00 TS 17.65 -84.68 85 80
NA 1887-07-25 00:00:00 TS 18.10 -85.33 85 85 85
NA 03:00:00 TS 18.61 -85.73 85 85
NA 06:00:00 TS 19.20 -86.00 85 85 85
NA 09:00:00 TS 19.84 -86.35 85 87
NA 12:00:00 TS 20.50 -86.67 85 85 90
NA 15:00:00 TS 21.15 -86.90 80 90
NA 18:00:00 TS 21.80 -87.07 75 75 90
NA 21:00:00 TS 22.42 -87.21 75 90
NA 1887-07-26 00:00:00 TS 23.03 -87.33 75 75 90
NA 03:00:00 TS 23.66 -87.52 75 90
NA 06:00:00 TS 24.27 -87.67 75 75 90
NA 09:00:00 TS 24.81 -87.71 75 90
NA 12:00:00 TS 25.33 -87.70 75 75 90
NA 15:00:00 TS 25.88 -87.73 75 90
NA 18:00:00 TS 26.43 -87.73 75 75 90
NA 21:00:00 TS 26.98 -87.68 75 90
NA 1887-07-27 00:00:00 TS 27.53 -87.57 75 75 90
NA 03:00:00 TS 28.08 -87.38 75 90
NA 06:00:00 TS 28.63 -87.17 75 75 90
NA 09:00:00 TS 29.19 -86.96 75 92
NA 12:00:00 TS 29.73 -86.77 75 75 95
NA 15:00:00 TS 30.26 -86.58 75 75 97
NA 18:00:00 TS 30.77 -86.33 65 65 100
NA 21:00:00 TS 31.14 -86.09 57 82
NA 1887-07-28 00:00:00 TS 31.43 -85.87 50 50 65
NA 03:00:00 TS 31.71 -85.66 45 57
NA 06:00:00 TS 31.97 -85.47 40 40 50
NA 09:00:00 TS 32.19 -85.28 37 45
NA 12:00:00 TS 32.36 -85.08 35 35 40
NA 15:00:00 TS 32.52 -84.87 32 37
NA 18:00:00 TS 32.53 -84.67 30 30 35
NA 21:00:00 TS 32.06 -84.52 32
NA 1887-07-29 00:00:00 TS 32.10 -84.20 30
NA 03:00:00 TS 32.17 -83.85 30
NA 06:00:00 TS 32.20 -83.50 30
NA 09:00:00 TS 32.12 -83.19 30
NA 12:00:00 TS 32.00 -82.90 30
NA 15:00:00 TS 31.91 -82.55 30
NA 18:00:00 TS 31.80 -82.30 30
NA 21:00:00 TS 31.66 -82.24 30
NA 1887-07-30 00:00:00 TS 31.50 -82.30 30

Source Information

Agency Information
USA hurdat2-1851-2018-051019.txt:Line=5590:UNNAMED
TOKYO
CMA
HKO
NEWDELHI
REUNION
BOM
NADI
WELLINGTON
DS824
TD9636
TD9635
NEUMANN
MLC

All available IBTrACS Data

SEASON BASIN SUBBASIN ISO_TIME_________ NATURE LAT LON WMO WIND WMO AGENCY DIST2LAND LANDFALL IFLAG USA AGENCY USA ATCF_ID USA LAT USA LON USA RECORD USA STATUS USA WIND USA SSHS MLC LAT MLC LON MLC CLASS MLC WIND STORM SPEED STORM DIR
Year degrees north degrees east kts km km degrees north degrees east kts 1 degrees north degrees east kts kts degrees
1887 NA NA 1887-07-20 00:00:00 TS 12.00 -57.60 60 hurdat_atl 398 328 O_____________ hurdat_atl AL041887 12.00 -57.60 TS 60 0 15 273
1887 NA NA 03:00:00 TS 12.04 -58.37 318 284 P_____________ AL041887 12.04 -58.37 TS 60 0 13 278
1887 NA NA 06:00:00 TS 12.19 -58.91 60 hurdat_atl 284 235 O____________O hurdat_atl AL041887 12.10 -59.20 TS 60 0 12.70 -57.20 TS 35 13 282
1887 NA CS 09:00:00 TS 12.31 -59.68 228 205 P____________P AL041887 12.19 -60.11 TS 60 0 12.79 -57.95 TS 37 15 281
1887 NA CS 12:00:00 TS 12.46 -60.37 60 hurdat_atl 211 204 O____________O hurdat_atl AL041887 12.30 -61.00 TS 60 0 12.90 -58.70 TS 40 13 284
1887 NA CS 15:00:00 TS 12.62 -60.98 212 212 P____________P AL041887 12.40 -61.75 TS 60 0 13.05 -59.45 TS 42 13 282
1887 NA CS 18:00:00 TS 12.73 -61.67 60 hurdat_atl 223 223 O____________O hurdat_atl AL041887 12.50 -62.40 TS 60 0 13.20 -60.20 TS 45 13 279
1887 NA CS 21:00:00 TS 12.83 -62.32 235 235 P____________P AL041887 12.60 -63.01 TS 60 0 13.30 -60.95 TS 45 13 279
1887 NA CS 1887-07-21 00:00:00 TS 12.93 -62.97 60 hurdat_atl 246 246 O____________O hurdat_atl AL041887 12.70 -63.60 TS 60 0 13.40 -61.70 TS 45 13 279
1887 NA CS 03:00:00 TS 13.04 -63.64 263 263 P____________P AL041887 12.79 -64.24 TS 65 1 13.55 -62.45 TS 45 14 280
1887 NA CS 06:00:00 TS 13.17 -64.33 70 hurdat_atl 291 291 O____________O hurdat_atl AL041887 12.90 -64.90 HU 70 1 13.70 -63.20 TS 45 14 281
1887 NA CS 09:00:00 TS 13.30 -65.05 317 311 P____________P AL041887 13.05 -65.60 HU 72 1 13.80 -63.95 TS 45 14 281
1887 NA CS 12:00:00 TS 13.43 -65.77 75 hurdat_atl 314 314 O____________O hurdat_atl AL041887 13.20 -66.30 HU 75 1 13.90 -64.70 TS 45 14 280
1887 NA CS 15:00:00 TS 13.55 -66.46 324 308 P____________P AL041887 13.30 -66.96 HU 75 1 14.05 -65.45 TS 45 14 280
1887 NA CS 18:00:00 TS 13.67 -67.13 75 hurdat_atl 313 288 O____________O hurdat_atl AL041887 13.40 -67.60 HU 75 1 14.20 -66.20 TS 45 13 280
1887 NA CS 21:00:00 TS 13.79 -67.82 289 252 P____________P AL041887 13.54 -68.25 HU 77 1 14.30 -66.95 TS 45 14 281
1887 NA CS 1887-07-22 00:00:00 TS 13.93 -68.50 80 hurdat_atl 252 234 O____________O hurdat_atl AL041887 13.70 -68.90 HU 80 1 14.40 -67.70 TS 45 14 282
1887 NA CS 03:00:00 TS 14.09 -69.19 236 228 P____________P AL041887 13.86 -69.56 HU 80 1 14.55 -68.45 TS 45 14 283
1887 NA CS 06:00:00 TS 14.23 -69.87 80 hurdat_atl 235 235 O____________O hurdat_atl AL041887 14.00 -70.20 HU 80 1 14.70 -69.20 TS 45 13 281
1887 NA CS 09:00:00 TS 14.34 -70.52 238 228 P____________P AL041887 14.11 -70.81 HU 82 1 14.80 -69.95 TS 45 13 279
1887 NA CS 12:00:00 TS 14.43 -71.17 85 hurdat_atl 226 226 O____________O hurdat_atl AL041887 14.20 -71.40 HU 85 2 14.90 -70.70 TS 45 13 280
1887 NA CS 15:00:00 TS 14.55 -71.82 235 235 P____________P AL041887 14.30 -72.00 HU 85 2 15.05 -71.45 TS 45 13 281
1887 NA CS 18:00:00 TS 14.67 -72.47 85 hurdat_atl 271 271 O____________O hurdat_atl AL041887 14.40 -72.60 HU 85 2 15.20 -72.20 TS 45 13 280
1887 NA CS 21:00:00 TS 14.77 -73.12 304 304 P____________P AL041887 14.51 -73.20 HU 85 2 15.30 -72.95 TS 47 13 279
1887 NA CS 1887-07-23 00:00:00 TS 14.87 -73.77 85 hurdat_atl 346 346 O____________O hurdat_atl AL041887 14.60 -73.80 HU 85 2 15.40 -73.70 TS 50 13 278
1887 NA CS 03:00:00 TS 14.94 -74.41 351 341 P____________P AL041887 14.64 -74.38 HU 85 2 15.55 -74.48 TS 50 13 278
1887 NA CS 06:00:00 TS 15.03 -75.07 85 hurdat_atl 345 306 O____________O hurdat_atl AL041887 14.70 -75.00 HU 85 2 15.70 -75.20 TS 50 13 280
1887 NA CS 09:00:00 TS 15.17 -75.76 305 281 P____________P AL041887 14.85 -75.77 HU 85 2 15.80 -75.75 TS 52 13 281
1887 NA CS 12:00:00 TS 15.30 -76.43 85 hurdat_atl 281 258 O____________O hurdat_atl AL041887 15.00 -76.50 HU 85 2 15.90 -76.30 TS 55 12 280
1887 NA CS 15:00:00 TS 15.38 -76.98 258 248 P____________P AL041887 15.06 -76.96 HU 85 2 16.03 -77.03 TS 57 11 279
1887 NA CS 18:00:00 TS 15.47 -77.53 85 hurdat_atl 248 248 O____________O hurdat_atl AL041887 15.10 -77.40 HU 85 2 16.20 -77.80 TS 60 12 281
1887 NA CS 21:00:00 TS 15.60 -78.21 258 257 P____________P AL041887 15.19 -78.06 HU 85 2 16.44 -78.51 TS 60 14 283
1887 NA CS 1887-07-24 00:00:00 TS 15.77 -78.93 85 hurdat_atl 267 267 O____________O hurdat_atl AL041887 15.30 -78.80 HU 85 2 16.70 -79.20 TS 60 14 283
1887 NA CS 03:00:00 TS 15.92 -79.66 292 287 P____________P AL041887 15.43 -79.55 HU 85 2 16.90 -79.89 TS 60 15 283
1887 NA CS 06:00:00 TS 16.10 -80.40 85 hurdat_atl 314 267 O____________O hurdat_atl AL041887 15.60 -80.30 HU 85 2 17.10 -80.60 TS 60 14 287
1887 NA CS 09:00:00 TS 16.32 -81.08 258 224 P____________P AL041887 15.81 -80.94 HU 85 2 17.35 -81.35 TS 62 15 290
1887 NA CS 12:00:00 TS 16.60 -81.83 85 hurdat_atl 224 188 O____________O hurdat_atl AL041887 16.10 -81.70 HU 85 2 17.60 -82.10 HU 65 18 289
1887 NA CS 15:00:00 TS 16.91 -82.83 190 165 P____________P AL041887 16.46 -82.84 HU 85 2 17.80 -82.80 HU 70 20 289
1887 NA CS 18:00:00 TS 17.27 -83.83 85 hurdat_atl 176 170 O____________O hurdat_atl AL041887 16.90 -84.00 HU 85 2 18.00 -83.50 HU 75 19 293
1887 NA CS 21:00:00 TS 17.65 -84.68 201 201 P____________P AL041887 17.38 -84.87 HU 85 2 18.18 -84.31 HU 80 17 300
1887 NA CS 1887-07-25 00:00:00 TS 18.10 -85.33 85 hurdat_atl 246 200 O____________O hurdat_atl AL041887 17.90 -85.50 HU 85 2 18.50 -85.00 HU 85 14 314
1887 NA CS 03:00:00 TS 18.61 -85.73 200 150 P____________P AL041887 18.38 -85.91 HU 85 2 19.09 -85.37 HU 85 13 330
1887 NA CS 06:00:00 TS 19.20 -86.00 85 hurdat_atl 150 117 O____________O hurdat_atl AL041887 18.90 -86.20 HU 85 2 19.80 -85.60 HU 85 14 334
1887 NA CS 09:00:00 TS 19.84 -86.35 109 39 P____________P AL041887 19.53 -86.58 HU 85 2 20.45 -85.90 HU 87 15 334
1887 NA CS 12:00:00 TS 20.50 -86.67 85 hurdat_atl 39 0 O____________O hurdat_atl AL041887 20.20 -86.90 HU 85 2 21.10 -86.20 HU 90 14 339
1887 NA NA 15:00:00 TS 21.15 -86.90 0 0 P____________P AL041887 20.86 -87.10 HU 80 1 21.75 -86.50 HU 90 14 344
1887 NA GM 18:00:00 TS 21.80 -87.07 75 hurdat_atl 33 33 O____________O hurdat_atl AL041887 21.50 -87.20 HU 75 1 22.40 -86.80 HU 90 13 347
1887 NA GM 21:00:00 TS 22.42 -87.21 101 101 P____________P AL041887 22.11 -87.26 HU 75 1 23.05 -87.10 HU 90 13 349
1887 NA GM 1887-07-26 00:00:00 TS 23.03 -87.33 75 hurdat_atl 168 168 O____________O hurdat_atl AL041887 22.70 -87.30 HU 75 1 23.70 -87.40 HU 90 13 347
1887 NA GM 03:00:00 TS 23.66 -87.52 246 246 P____________P AL041887 23.30 -87.40 HU 75 1 24.39 -87.75 HU 90 13 346
1887 NA GM 06:00:00 TS 24.27 -87.67 75 hurdat_atl 312 312 O____________O hurdat_atl AL041887 23.90 -87.50 HU 75 1 25.00 -88.00 HU 90 12 351
1887 NA GM 09:00:00 TS 24.81 -87.71 368 368 P____________P AL041887 24.50 -87.56 HU 75 1 25.43 -88.00 HU 90 11 358
1887 NA GM 12:00:00 TS 25.33 -87.70 75 hurdat_atl 424 372 O____________O hurdat_atl AL041887 25.10 -87.60 HU 75 1 25.80 -87.90 HU 90 11 359
1887 NA GM 15:00:00 TS 25.88 -87.73 372 321 P____________P AL041887 25.70 -87.66 HU 75 1 26.24 -87.86 HU 90 11 358
1887 NA GM 18:00:00 TS 26.43 -87.73 75 hurdat_atl 321 262 O____________O hurdat_atl AL041887 26.30 -87.70 HU 75 1 26.70 -87.80 HU 90 11 2
1887 NA GM 21:00:00 TS 26.98 -87.68 262 222 P____________P AL041887 26.90 -87.69 HU 75 1 27.15 -87.67 HU 90 11 8
1887 NA GM 1887-07-27 00:00:00 TS 27.53 -87.57 75 hurdat_atl 222 191 O____________O hurdat_atl AL041887 27.50 -87.60 HU 75 1 27.60 -87.50 HU 90 11 14
1887 NA GM 03:00:00 TS 28.08 -87.38 191 183 P____________P AL041887 28.10 -87.42 HU 75 1 28.05 -87.31 HU 90 12 18
1887 NA GM 06:00:00 TS 28.63 -87.17 75 hurdat_atl 183 124 O____________O hurdat_atl AL041887 28.70 -87.20 HU 75 1 28.50 -87.10 HU 90 12 18
1887 NA GM 09:00:00 TS 29.19 -86.96 124 77 P____________P AL041887 29.32 -87.00 HU 75 1 28.94 -86.89 HU 92 12 18
1887 NA GM 12:00:00 TS 29.73 -86.77 75 hurdat_atl 77 22 O____________O hurdat_atl AL041887 29.90 -86.80 HU 75 1 29.40 -86.70 HU 95 11 17
1887 NA GM 15:00:00 TS 30.26 -86.58 75 hurdat_atl 11 0 O____________P hurdat_atl AL041887 30.40 -86.60 L HU 75 1 29.99 -86.55 HU 97 11 20
1887 NA NA 18:00:00 TS 30.77 -86.33 65 hurdat_atl 0 0 O____________O hurdat_atl AL041887 30.90 -86.30 HU 65 1 30.50 -86.40 MH 100 10 26
1887 NA NA 21:00:00 TS 31.14 -86.09 0 0 P____________P AL041887 31.33 -86.03 HU 57 0 30.75 -86.21 MH 82 8 31
1887 NA NA 1887-07-28 00:00:00 TS 31.43 -85.87 50 hurdat_atl 0 0 O____________O hurdat_atl AL041887 31.70 -85.80 TS 50 0 30.90 -86.00 HU 65 7 33
1887 NA NA 03:00:00 TS 31.71 -85.66 0 0 P____________P AL041887 32.02 -85.59 TS 45 0 31.10 -85.80 HU 57 6 33
1887 NA NA 06:00:00 TS 31.97 -85.47 40 hurdat_atl 0 0 O____________O hurdat_atl AL041887 32.30 -85.40 TS 40 0 31.30 -85.60 TS 50 6 34
1887 NA NA 09:00:00 TS 32.19 -85.28 0 0 P____________P AL041887 32.53 -85.21 TS 37 0 31.51 -85.40 TS 45 5 40
1887 NA NA 12:00:00 TS 32.36 -85.08 35 hurdat_atl 0 0 O____________O hurdat_atl AL041887 32.80 -85.00 TS 35 0 31.70 -85.20 TS 40 5 47
1887 NA NA 15:00:00 TS 32.52 -84.87 0 0 P____________P AL041887 33.17 -84.72 TS 32 -1 31.87 -85.01 TS 37 4 64
1887 NA NA 18:00:00 TS 32.53 -84.67 30 hurdat_atl 0 0 O____________O hurdat_atl AL041887 33.60 -84.40 TD 30 -1 32.00 -84.80 TS 35 5 148
1887 NA NA 21:00:00 TS 32.06 -84.52 0 0 _____________P AL041887 TD -1 32.06 -84.52 TS 32 6 138
1887 NA NA 1887-07-29 00:00:00 TS 32.10 -84.20 0 0 _____________O 32.10 -84.20 TD 30 6 79
1887 NA NA 03:00:00 TS 32.17 -83.85 0 0 _____________P 32.17 -83.85 TD 30 6 80
1887 NA NA 06:00:00 TS 32.20 -83.50 0 0 _____________O 32.20 -83.50 TD 30 6 95
1887 NA NA 09:00:00 TS 32.12 -83.19 0 0 _____________P 32.12 -83.19 TD 30 5 111
1887 NA NA 12:00:00 TS 32.00 -82.90 0 0 _____________O 32.00 -82.90 TD 30 6 112
1887 NA NA 15:00:00 TS 31.91 -82.55 0 0 _____________P 31.91 -82.55 TD 30 5 111
1887 NA NA 18:00:00 TS 31.80 -82.30 0 0 _____________O 31.80 -82.30 TD 30 4 133
1887 NA NA 21:00:00 TS 31.66 -82.24 0 0 _____________P 31.66 -82.24 TD 30 3 0
1887 NA NA 1887-07-30 00:00:00 TS 31.50 -82.30 0 _____________O 31.50 -82.30 TD 30 3 198